Aviation Digital Data Service (ADDS)

Output produced by METARs form (0053 UTC 22 September 2017)
found at http://www.aviationweather.gov/adds/metars/
 
WBGB 220000Z 15004KT 110V170 9999 FEW003 SCT150 BKN300 26/25 Q1009
TAF WBGB 212300Z 2200/2224 15005KT 9999 SCT016 BKN150
       
WMKB 220000Z 03005KT 7000 -RA FEW022 SCT140 BKN250 25/24 Q1010 NOSIG
TAF WMKB 212300Z 2200/2224 08005KT 8000 FEW010 SCT140 BKN280 
     TEMPO 2200/2202 5000 RA FEW005 FEW016CB 
     TEMPO 2203/2208 6000 -TSRA FEW017CB SCT025
       
WMKE 220000Z 00000KT 9999 FEW010 SCT020 BKN200 24/24 Q1009
TAF WMKE 212300Z 2200/2224 16005KT 9999 FEW020 SCT140 BKN280 
     PROB30 
     TEMPO 2208/2212 4000 TSRA FEW015CB SCT018
       
TAF WMAP 212300Z 2200/2224 16005KT 9999 FEW025 SCT140 BKN280 
     TEMPO 2207/2211 4000 TSRA FEW015CB SCT018
       
WBKK 220030Z 12006KT 090V150 9999 FEW014 SCT130 BKN260 27/21 Q1010 NOSIG
TAF WBKK 212300Z 2200/2300 32005KT 9999 FEW015
       
WMKK 220030Z 04003KT 340V070 8000 FEW018 SCT140 BKN280 27/24 Q1010 NOSIG
TAF WMKK 212300Z 2200/2306 16005KT 9999 FEW030 SCT140 BKN280
       
WMKD 220000Z 00000KT 9999 FEW020 BKN160 BKN280 25/24 Q1009 NOSIG
WBGG 220030Z 17003KT 6000 FEW014 BKN150 27/23 Q1010 NOSIG
TAF WBGG 212300Z 2200/2300 14005KT 9999 FEW020 BKN150
       
WBKL 220000Z 00000KT 9999 FEW013 OVC290 28/25 Q1010
TAF WBKL 212300Z 2200/2224 VRB04KT 9999 FEW014 
     TEMPO 2200/2203 4000 RA FEW012 FEW013CB SCT030
       
WMKL 220000Z 29008KT 230V020 9999 -RA FEW010 SCT024 OVC260 27/24 Q1009
TAF WMKL 212300Z 2200/2224 18005KT 9999 FEW017CB SCT020 OVC260 
     TEMPO 2200/2204 4000 TSRA FEW015CB SCT018
       
WMKM 220000Z VRB02KT 9999 FEW018 SCT140 BKN270 25/23 Q1010
TAF WMKM 212300Z 2200/2224 16005KT 9999 FEW028 SCT140 BKN270
       
WBGR 220000Z VRB03KT 9999 FEW005 BKN150 26/25 Q1010
TAF WBGR 212300Z 2200/2224 25005KT 9999 SCT016 BKN150 
     TEMPO 2206/2209 5000 SHRA FEW015CB
       
WBGB 220000Z 15004KT 110V170 9999 FEW003 SCT150 BKN300 26/25 Q1009
TAF WBGB 212300Z 2200/2224 15005KT 9999 SCT016 BKN150
       
WBGG 220030Z 17003KT 6000 FEW014 BKN150 27/23 Q1010 NOSIG
TAF WBGG 212300Z 2200/2300 14005KT 9999 FEW020 BKN150
       
WBGR 220000Z VRB03KT 9999 FEW005 BKN150 26/25 Q1010
TAF WBGR 212300Z 2200/2224 25005KT 9999 SCT016 BKN150 
     TEMPO 2206/2209 5000 SHRA FEW015CB
       
WBGS 220000Z 00000KT 9999 FEW005 SCT018 BKN300 26/23 Q1011
TAF WBGS 212300Z 2200/2224 22005KT 9999 SCT018 SCT150 BKN300
       
WBGY 220000Z VRB01KT 9999 FEW014 BKN150 BKN300 25/23 Q1010
WBKK 220030Z 12006KT 090V150 9999 FEW014 SCT130 BKN260 27/21 Q1010 NOSIG
TAF WBKK 212300Z 2200/2300 32005KT 9999 FEW015
       
WBKL 220000Z 00000KT 9999 FEW013 OVC290 28/25 Q1010
TAF WBKL 212300Z 2200/2224 VRB04KT 9999 FEW014 
     TEMPO 2200/2203 4000 RA FEW012 FEW013CB SCT030
       
WBKS 220000Z VRB02KT 9999 FEW015 BKN140 BKN270 25/24 Q1010
TAF WBKS 212300Z 2200/2224 23005KT 9999 FEW016 
     TEMPO 2200/2204 4000 RA FEW014 FEW015CB SCT030
       
WBKT 220000Z 00000KT 9999 SCT014 SCT140 BKN270 27/25 Q1009
WBKW 220000Z VRB02KT 9999 FEW010 BKN140 26/23 Q1010
TAF WBKW 212300Z 2200/2224 17005KT 9999 FEW017 
     TEMPO 2200/2204 4000 RA FEW017 SCT030
       
WBSB 220030Z 21004KT 9999 FEW015 BKN140 27/25 Q1010 NOSIG
TAF WBSB 212245Z 2200/2306 21005KT 9999 FEW015 BKN140 
     BECMG 2204/2206 26010KT FEW016 SCT140
       
WMKP 220030Z 04004KT 360V080 7000 -TSRA FEW010 FEW017CB SCT025 BKN260 25/24 Q1010 NOSIG
TAF WMKP 212300Z 2200/2300 01005KT 9000 FEW020 SCT140 BKN270 
     TEMPO 2200/2204 6000 -TSRA FEW017CB 
     TEMPO 2208/2212 5000 TSRA FEW010 FEW017CB SCT023 BKN260
       
TAF WMBT 212300Z 2200/2224 22005KT 9999 FEW025 SCT140 BKN280 
     TEMPO 2208/2212 4000 TSRA FEW015CB SCT018
       
WBKS 220000Z VRB02KT 9999 FEW015 BKN140 BKN270 25/24 Q1010
TAF WBKS 212300Z 2200/2224 23005KT 9999 FEW016 
     TEMPO 2200/2204 4000 RA FEW014 FEW015CB SCT030
       
WBGS 220000Z 00000KT 9999 FEW005 SCT018 BKN300 26/23 Q1011
TAF WBGS 212300Z 2200/2224 22005KT 9999 SCT018 SCT150 BKN300
       
WMSA 220000Z 00000KT 9999 FEW020 SCT140 BKN280 25/23 Q1011
TAF WMSA 212300Z 2200/2300 15005KT 9999 FEW026 SCT140 BKN280 
     PROB30 
     TEMPO 2207/2211 4000 TSRA FEW015CB SCT018
       
WMKA 220000Z 16004KT 120V200 9999 FEW017CB SCT030 BKN270 24/23 Q1009
TAF WMKA 212300Z 2200/2224 14005KT 9999 FEW017CB SCT020 BKN250 
     TEMPO 2200/2204 4000 TSRA FEW015CB SCT018
       
WMKI 220000Z 03005KT 360V060 9999 FEW017CB SCT140 BKN280 24/22 Q1010
TAF WMKI 212300Z 2200/2224 02005KT 9999 FEW030 SCT140 BKN300 
     TEMPO 2208/2212 4000 TSRA FEW015CB SCT018
       
WMKJ 220000Z VRB01KT 9999 FEW017CB BKN130 24/23 Q1010
TAF WMKJ 212300Z 2200/2300 18005KT 9999 FEW024 SCT140 BKN300 
     TEMPO 2207/2211 4000 TSRA FEW015CB SCT018
       
WMKC 220000Z 00000KT 9999 FEW020 BKN140 25/23 Q1009
TAF WMKC 212300Z 2200/2224 22005KT 9999 FEW020 SCT140 BKN220 
     PROB30 
     TEMPO 2208/2212 4000 TSRA FEW015CB SCT018
       
WMKN 220000Z VRB03KT 9999 FEW020 BKN150 BKN280 25/24 Q1008
TAF WMKN 212300Z 2200/2224 21005KT 9999 FEW022 SCT150 BKN300 
     PROB30 
     TEMPO 2208/2212 4000 TSRA FEW015CB SCT018
       
WBKW 220000Z VRB02KT 9999 FEW010 BKN140 26/23 Q1010
TAF WBKW 212300Z 2200/2224 17005KT 9999 FEW017 
     TEMPO 2200/2204 4000 RA FEW017 SCT030